KMIA/MIA METAR and TAF weather

Enter ICAO airport designator
Station Type Date Time Source
KMIA METAR 2020/07/06 21:08 UTC NOAA

KMIA 062108Z 36003KT 10SM -RA FEW030 SCT055 BKN085 BKN250 28/24 A3006 RMK AO2 LTG DSNT NE AND E RAB04 OCNL LTGCG DSNT NE CB DSNT NE-SE MOV NE P0000 T02780239


Station Type Date Time Source
KMIA Decoded METAR 2020/07/06 21:08 UTC NOAA

MIAMI INTERNATIONAL AIRPORT , FL, United States (KMIA) 25-47N 080-19W 8M
Jul 06, 2020 - 05:08 PM EDT / 2020.07.06 2108 UTC
Wind: from the N (360 degrees) at 3 MPH (3 KT):0
Visibility: 10 mile(s):0
Sky conditions: mostly cloudy
Weather: light rain; Cumulonimbus clouds, lightning observed
Precipitation last hour: A trace
Temperature: 82.0 F (27.8 C)
Dew Point: 75.0 F (23.9 C)
Relative Humidity: 79%
Pressure (altimeter): 30.06 in. Hg (1017 hPa)
ob: KMIA 062108Z 36003KT 10SM -RA FEW030 SCT055 BKN085 BKN250 28/24 A3006 RMK AO2 LTG DSNT NE AND E RAB04 OCNL LTGCG DSNT NE CB DSNT NE-SE MOV NE P0000 T02780239
cycle: 21

Station Type Date Time Source
KMIA TAF 2020/07/06 20:10 UTC NOAA

TAF
AMD KMIA 062007Z 0620/0724 13010KT P6SM VCTS BKN035CB BKN100
FM070000 VRB04KT P6SM VCSH SCT040 BKN100 BKN250
FM070600 VRB02KT P6SM FEW050 BKN250
FM071600 12008KT P6SM VCTS SCT035CB SCT100

Example: see airport list